Time;durP1;ratioP1;P1;durP2;ratioP2;P2;SDS_P1;SDS_P2;PMS_P1;PMS_P2;Temp;Humidity;BMP_temperature;BMP_pressure;BME280_temperature;BME280_humidity;BME280_pressure;Samples;Min_cycle;Max_cycle;Signal;HPM_P1;HPM_P2
2022/11/01 00:01:30;;;;;;;;;;;;;;;20.39;66.50;97651.73;604743;234;64974;-73
2022/11/01 00:03:58;;;;;;;;;;;;;;;20.39;66.47;97642.92;604698;234;66748;-73
2022/11/01 00:06:25;;;;;;;;;;;;;;;20.39;66.27;97645.59;604762;234;66729;-76
2022/11/01 00:08:53;;;;;;;;;;;;;;;20.39;67.18;97649.06;604675;234;64920;-76
2022/11/01 00:11:20;;;;;;;;;;;;;;;20.39;67.09;97646.39;604735;234;67084;-74
2022/11/01 00:13:49;;;;;;;;;;;;;;;20.38;68.94;97644.79;604677;234;64822;-71
2022/11/01 00:16:18;;;;;;;;;;;;;;;20.38;67.64;97643.98;604685;234;64905;-74
2022/11/01 00:18:46;;;;;;;;;;;;;;;20.37;68.19;97648.50;604681;234;67237;-72
2022/11/01 00:21:14;;;;;;;;;;;;;;;20.37;66.99;97637.02;604715;234;66796;-73
2022/11/01 00:23:41;;;;;;;;;;;;;;;20.37;68.23;97637.02;604703;234;62796;-74
2022/11/01 00:26:10;;;;;;;;;;;;;;;20.37;67.96;97634.34;604669;234;64861;-72
2022/11/01 00:28:38;;;;;;;;;;;;;;;20.37;68.12;97634.34;604578;234;64883;-72
2022/11/01 00:31:05;;;;;;;;;;;;;;;20.36;68.21;97630.08;604677;234;62846;-72
2022/11/01 00:33:32;;;;;;;;;;;;;;;20.37;66.75;97631.67;604736;234;64523;-71
2022/11/01 00:36:01;;;;;;;;;;;;;;;20.36;68.98;97640.76;604709;234;66786;-74
2022/11/01 00:38:28;;;;;;;;;;;;;;;20.37;67.79;97639.69;604664;234;64917;-71
2022/11/01 00:40:56;;;;;;;;;;;;;;;20.34;68.72;97637.52;604673;234;65048;-74
2022/11/01 00:43:24;;;;;;;;;;;;;;;20.35;68.04;97629.28;604668;234;65432;-74
2022/11/01 00:45:51;;;;;;;;;;;;;;;20.35;67.71;97634.62;604725;234;64928;-72
2022/11/01 00:48:19;;;;;;;;;;;;;;;20.35;68.29;97631.95;604685;234;64554;-72
2022/11/01 00:50:46;;;;;;;;;;;;;;;20.35;67.32;97633.78;602689;234;66884;-71
2022/11/01 00:53:14;;;;;;;;;;;;;;;20.35;68.49;97629.28;600683;236;65032;-72
2022/11/01 00:55:41;;;;;;;;;;;;;;;20.36;67.94;97624.73;600710;236;67141;-74
2022/11/01 00:58:09;;;;;;;;;;;;;;;20.35;67.64;97625.78;600774;236;66737;-71
2022/11/01 01:00:36;;;;;;;;;;;;;;;20.35;68.65;97631.12;600764;236;64882;-72
2022/11/01 01:03:05;;;;;;;;;;;;;;;20.34;67.43;97622.31;600742;236;66485;-72
2022/11/01 01:05:33;;;;;;;;;;;;;;;20.34;67.65;97630.31;600729;236;66813;-72
2022/11/01 01:08:01;;;;;;;;;;;;;;;20.34;68.21;97627.64;600711;236;62841;-71
2022/11/01 01:10:28;;;;;;;;;;;;;;;20.34;66.41;97627.64;600743;236;65063;-71
2022/11/01 01:12:56;;;;;;;;;;;;;;;20.35;69.24;97620.44;600784;236;66661;-72
2022/11/01 01:15:23;;;;;;;;;;;;;;;20.33;68.76;97619.91;600746;236;64856;-72
2022/11/01 01:17:51;;;;;;;;;;;;;;;20.34;68.93;97626.84;600729;236;64320;-72
2022/11/01 01:20:19;;;;;;;;;;;;;;;20.33;68.32;97626.05;600720;236;67209;-71
2022/11/01 01:22:47;;;;;;;;;;;;;;;20.34;68.88;97632.98;600750;236;64927;-73
2022/11/01 01:25:15;;;;;;;;;;;;;;;20.33;69.97;97626.05;600774;236;66782;-74
2022/11/01 01:27:42;;;;;;;;;;;;;;;20.33;69.27;97630.59;600735;236;66639;-74
2022/11/01 01:30:11;;;;;;;;;;;;;;;20.31;68.81;97630.02;600765;236;64940;-73
2022/11/01 01:32:38;;;;;;;;;;;;;;;20.32;68.71;97628.95;600715;236;64532;-74
2022/11/01 01:35:06;;;;;;;;;;;;;;;20.33;69.32;97635.92;600743;236;64551;-74
2022/11/01 01:37:33;;;;;;;;;;;;;;;20.32;69.39;97626.28;600802;236;62797;-74
2022/11/01 01:40:01;;;;;;;;;;;;;;;20.32;68.72;97628.95;600726;236;64457;-73
2022/11/01 01:42:30;;;;;;;;;;;;;;;20.31;68.52;97625.48;600742;236;64492;-74
2022/11/01 01:44:59;;;;;;;;;;;;;;;20.32;69.45;97628.95;600741;236;64972;-74
2022/11/01 01:47:28;;;;;;;;;;;;;;;20.32;69.52;97628.95;600682;236;66734;-74
2022/11/01 01:50:00;;;;;;;;;;;;;;;20.31;68.53;97630.83;601289;234;66393;-74
2022/11/01 01:52:29;;;;;;;;;;;;;;;20.31;68.77;97630.83;604738;234;65193;-74
2022/11/01 01:54:57;;;;;;;;;;;;;;;20.31;69.80;97633.49;604680;234;66698;-74
2022/11/01 01:57:25;;;;;;;;;;;;;;;20.30;69.16;97631.89;604689;234;66884;-74
2022/11/01 01:59:52;;;;;;;;;;;;;;;20.31;69.89;97638.83;604689;234;64975;-73
2022/11/01 02:02:21;;;;;;;;;;;;;;;20.31;68.59;97632.69;604680;234;64532;-74
2022/11/01 02:04:49;;;;;;;;;;;;;;;20.30;69.06;97634.56;604747;234;64872;-74
2022/11/01 02:07:17;;;;;;;;;;;;;;;20.30;69.63;97636.43;604626;234;64692;-74
2022/11/01 02:09:45;;;;;;;;;;;;;;;20.30;69.22;97631.89;604678;234;66733;-74
2022/11/01 02:12:13;;;;;;;;;;;;;;;20.29;69.13;97645.47;604737;234;64475;-74
2022/11/01 02:14:42;;;;;;;;;;;;;;;20.30;69.26;97647.11;604726;234;62851;-74
2022/11/01 02:17:26;;;;;;;;;;;;;;;20.29;69.70;97637.47;604760;234;67577;-74
2022/11/01 02:20:10;;;;;;;;;;;;;;;20.28;69.88;97634.00;604669;234;66743;-74
2022/11/01 02:22:51;;;;;;;;;;;;;;;20.28;69.24;97643.88;604467;234;64957;-74
2022/11/01 02:25:21;;;;;;;;;;;;;;;20.29;67.43;97640.14;604728;234;64749;-74
2022/11/01 02:27:53;;;;;;;;;;;;;;;20.29;69.99;97648.14;604637;234;64578;-74
2022/11/01 02:30:21;;;;;;;;;;;;;;;20.28;68.92;97654.55;604742;234;64867;-74
2022/11/01 02:33:08;;;;;;;;;;;;;;;20.27;68.41;97651.08;604783;234;64491;-74
2022/11/01 02:35:54;;;;;;;;;;;;;;;20.27;68.11;97643.08;604710;234;66694;-74
2022/11/01 02:38:26;;;;;;;;;;;;;;;20.28;68.94;97646.55;604730;234;65113;-74
2022/11/01 02:41:02;;;;;;;;;;;;;;;20.27;68.29;97650.25;604762;234;64163;-74
2022/11/01 02:43:31;;;;;;;;;;;;;;;20.26;68.69;97651.31;604471;234;66704;-74
2022/11/01 02:46:59;;;;;;;;;;;;;;;20.26;69.65;97649.45;604659;234;62786;-74
2022/11/01 02:48:29;;;;;;;;;;;;;;;20.26;69.22;97651.31;603907;234;64523;-74
2022/11/01 02:50:58;;;;;;;;;;;;;;;20.26;69.35;97652.12;602483;234;66640;-74
2022/11/01 02:53:25;;;;;;;;;;;;;;;20.25;68.89;97655.05;600734;236;62774;-73
2022/11/01 02:55:53;;;;;;;;;;;;;;;20.25;68.79;97655.05;600777;236;64594;-74
2022/11/01 02:58:25;;;;;;;;;;;;;;;20.26;68.95;97656.66;600745;236;64439;-74
2022/11/01 03:00:54;;;;;;;;;;;;;;;20.26;69.20;97656.66;600707;234;62768;-74
2022/11/01 03:03:29;;;;;;;;;;;;;;;20.26;69.26;97659.33;600788;236;66713;-74
2022/11/01 03:06:07;;;;;;;;;;;;;;;20.25;69.11;97661.19;600786;236;66423;-74
2022/11/01 03:08:42;;;;;;;;;;;;;;;20.25;69.43;97665.73;600620;236;62869;-76
2022/11/01 03:11:20;;;;;;;;;;;;;;;20.26;69.30;97661.99;600742;236;66693;-76
2022/11/01 03:13:50;;;;;;;;;;;;;;;20.26;69.07;97664.66;600724;236;65709;-76
2022/11/01 03:16:21;;;;;;;;;;;;;;;20.25;69.54;97668.40;600674;234;64865;-76
2022/11/01 03:18:50;;;;;;;;;;;;;;;20.24;70.37;97667.56;600589;236;66836;-76
2022/11/01 03:21:19;;;;;;;;;;;;;;;20.24;68.86;97669.44;600354;236;64275;-76
2022/11/01 03:23:48;;;;;;;;;;;;;;;20.23;69.33;97668.64;600698;234;62938;-76
2022/11/01 03:26:17;;;;;;;;;;;;;;;20.24;68.14;97664.10;600450;236;66803;-76
2022/11/01 03:28:52;;;;;;;;;;;;;;;20.23;68.59;97668.64;600679;236;64380;-76
2022/11/01 03:31:21;;;;;;;;;;;;;;;20.23;69.32;97671.30;600657;236;62748;-76
2022/11/01 03:33:51;;;;;;;;;;;;;;;20.24;68.95;97675.58;600565;236;64107;-72
2022/11/01 03:36:20;;;;;;;;;;;;;;;20.23;67.66;97673.17;600656;235;64603;-73
2022/11/01 03:38:49;;;;;;;;;;;;;;;20.23;65.93;97676.64;600633;236;65137;-75
2022/11/01 03:41:18;;;;;;;;;;;;;;;20.24;67.11;97680.11;600641;236;67028;-75
2022/11/01 03:43:46;;;;;;;;;;;;;;;20.24;68.52;97677.45;600753;236;64390;-75
2022/11/01 03:46:15;;;;;;;;;;;;;;;20.24;70.27;97680.11;600413;236;65189;-75
2022/11/01 03:48:42;;;;;;;;;;;;;;;20.23;69.80;97679.31;600720;236;64802;-75
2022/11/01 03:51:10;;;;;;;;;;;;;;;20.22;69.46;97672.38;600721;236;64468;-75
2022/11/01 03:53:37;;;;;;;;;;;;;;;20.24;70.00;97682.78;600777;236;64800;-75
2022/11/01 03:56:05;;;;;;;;;;;;;;;20.23;69.72;97678.51;600784;236;66558;-75
2022/11/01 03:58:42;;;;;;;;;;;;;;;20.23;69.57;97683.84;600805;236;66317;-75
2022/11/01 04:01:12;;;;;;;;;;;;;;;20.22;69.68;97674.23;600814;236;64850;-75
2022/11/01 04:03:40;;;;;;;;;;;;;;;20.22;69.22;97677.71;600756;236;66696;-74
2022/11/01 04:06:08;;;;;;;;;;;;;;;20.21;69.98;97678.75;600758;236;66487;-75
2022/11/01 04:08:35;;;;;;;;;;;;;;;20.22;69.96;97676.91;600751;236;64885;-72
2022/11/01 04:11:03;;;;;;;;;;;;;;;20.22;69.67;97671.57;600759;236;66530;-72
2022/11/01 04:13:31;;;;;;;;;;;;;;;20.21;70.08;97677.95;600796;236;66424;-72
2022/11/01 04:20:31;;;;;;;;;;;;;;;20.20;70.15;97674.48;600750;236;66611;-72
2022/11/01 04:21:23;;;;;;;;;;;;;;;20.21;70.10;97675.28;599822;236;66361;-72
2022/11/01 04:23:51;;;;;;;;;;;;;;;20.20;69.99;97671.81;600730;236;64962;-73
2022/11/01 04:26:20;;;;;;;;;;;;;;;20.19;69.63;97667.54;600761;236;66768;-73
2022/11/01 04:28:56;;;;;;;;;;;;;;;20.18;70.10;97672.05;600761;236;64867;-72
2022/11/01 04:31:25;;;;;;;;;;;;;;;20.20;69.95;97671.01;600756;236;64955;-72
2022/11/01 04:33:53;;;;;;;;;;;;;;;20.17;69.71;97675.78;600749;236;66775;-73
2022/11/01 04:36:21;;;;;;;;;;;;;;;20.18;70.45;97669.37;600747;236;66632;-73
2022/11/01 04:38:50;;;;;;;;;;;;;;;20.18;70.17;97677.37;600729;236;64972;-75
2022/11/01 04:41:18;;;;;;;;;;;;;;;20.17;69.77;97667.77;600766;236;64532;-75
2022/11/01 04:43:47;;;;;;;;;;;;;;;20.18;69.87;97676.58;600785;236;66674;-75
2022/11/01 04:46:15;;;;;;;;;;;;;;;20.17;69.04;97667.77;600769;236;65141;-75
2022/11/01 04:48:43;;;;;;;;;;;;;;;20.18;69.91;97677.37;600691;236;66524;-75
2022/11/01 04:51:11;;;;;;;;;;;;;;;20.17;69.95;97667.77;600705;236;66596;-75
2022/11/01 04:53:38;;;;;;;;;;;;;;;20.17;70.18;97673.11;600702;236;65204;-75
2022/11/01 04:56:07;;;;;;;;;;;;;;;20.16;69.41;97674.18;600775;236;67977;-75
2022/11/01 04:58:35;;;;;;;;;;;;;;;20.17;69.01;97677.64;600721;236;64858;-75
2022/11/01 05:01:06;;;;;;;;;;;;;;;20.17;69.26;97675.78;600707;236;62753;-76
2022/11/01 05:03:34;;;;;;;;;;;;;;;20.17;69.75;97675.78;600732;236;64581;-75
2022/11/01 05:06:01;;;;;;;;;;;;;;;20.17;69.93;97677.64;600713;236;64407;-74
2022/11/01 05:08:29;;;;;;;;;;;;;;;20.16;68.98;97682.19;600757;236;65050;-74
2022/11/01 05:10:57;;;;;;;;;;;;;;;20.15;69.50;97683.22;600705;236;67044;-75
2022/11/01 05:13:24;;;;;;;;;;;;;;;20.16;69.32;97686.69;600714;234;66798;-75
2022/11/01 05:15:52;;;;;;;;;;;;;;;20.16;69.95;97692.03;600662;236;65400;-76
2022/11/01 05:18:19;;;;;;;;;;;;;;;20.16;69.28;97692.03;600668;236;67049;-74
2022/11/01 05:20:47;;;;;;;;;;;;;;;20.15;69.60;97691.22;600763;236;64938;-75
2022/11/01 05:23:14;;;;;;;;;;;;;;;20.14;69.96;97692.30;600713;236;62763;-77
2022/11/01 05:25:42;;;;;;;;;;;;;;;20.15;69.66;97693.09;600698;236;64824;-75
2022/11/01 05:28:12;;;;;;;;;;;;;;;20.15;69.57;97699.23;600670;236;64638;-75
2022/11/01 05:30:40;;;;;;;;;;;;;;;20.15;69.53;97698.43;600706;236;62908;-75
2022/11/01 05:33:09;;;;;;;;;;;;;;;20.14;69.66;97705.63;600716;236;64887;-75
2022/11/01 05:35:37;;;;;;;;;;;;;;;20.14;69.43;97702.17;600750;236;66803;-75
2022/11/01 05:38:05;;;;;;;;;;;;;;;20.13;69.75;97701.36;600730;236;64923;-75
2022/11/01 05:40:33;;;;;;;;;;;;;;;20.14;69.59;97699.50;600699;236;67049;-74
2022/11/01 05:43:00;;;;;;;;;;;;;;;20.14;69.73;97704.84;600652;236;67249;-74
2022/11/01 05:45:28;;;;;;;;;;;;;;;20.13;69.65;97703.20;600711;236;66264;-75
2022/11/01 05:47:55;;;;;;;;;;;;;;;20.13;69.45;97706.70;600747;236;67007;-74
2022/11/01 05:50:23;;;;;;;;;;;;;;;20.13;69.14;97704.03;600674;236;67314;-75
2022/11/01 05:52:50;;;;;;;;;;;;;;;20.13;69.33;97705.88;600738;236;64879;-75
2022/11/01 05:55:18;;;;;;;;;;;;;;;20.13;69.42;97712.04;600711;236;67023;-75
2022/11/01 05:57:45;;;;;;;;;;;;;;;20.14;69.00;97712.84;600766;236;66922;-75
2022/11/01 06:00:13;;;;;;;;;;;;;;;20.13;69.34;97705.88;600801;234;64913;-74
2022/11/01 06:02:40;;;;;;;;;;;;;;;20.13;69.69;97712.04;600749;236;66853;-74
2022/11/01 06:05:08;;;;;;;;;;;;;;;20.13;69.47;97716.55;600760;236;67069;-75
2022/11/01 06:07:36;;;;;;;;;;;;;;;20.12;69.47;97718.41;600712;236;64960;-75
2022/11/01 06:10:04;;;;;;;;;;;;;;;20.13;68.92;97721.88;600724;236;67314;-75
2022/11/01 06:12:31;;;;;;;;;;;;;;;20.13;69.33;97721.88;600808;236;64631;-75
2022/11/01 06:14:59;;;;;;;;;;;;;;;20.11;66.35;97718.67;600692;236;62765;-75
2022/11/01 06:17:26;;;;;;;;;;;;;;;20.11;68.53;97727.48;600748;236;67061;-75
2022/11/01 06:19:54;;;;;;;;;;;;;;;20.12;69.56;97725.61;600730;236;66851;-75
2022/11/01 06:22:22;;;;;;;;;;;;;;;20.12;69.22;97721.08;600711;236;63747;-75
2022/11/01 06:24:49;;;;;;;;;;;;;;;20.12;69.11;97726.42;600728;236;67036;-75
2022/11/01 06:27:16;;;;;;;;;;;;;;;20.12;69.62;97726.42;600777;236;66842;-74
2022/11/01 06:29:44;;;;;;;;;;;;;;;20.12;68.99;97731.75;600746;236;64873;-75
2022/11/01 06:32:11;;;;;;;;;;;;;;;20.13;69.81;97736.05;600716;234;67007;-75
2022/11/01 06:34:39;;;;;;;;;;;;;;;20.13;69.30;97736.05;600717;236;67032;-75
2022/11/01 06:37:06;;;;;;;;;;;;;;;20.14;69.77;97739.52;600721;236;64864;-75
2022/11/01 06:39:34;;;;;;;;;;;;;;;20.14;69.57;97742.19;600785;236;67023;-74
2022/11/01 06:42:01;;;;;;;;;;;;;;;20.14;69.31;97734.98;600725;236;66865;-75
2022/11/01 06:44:29;;;;;;;;;;;;;;;20.14;69.44;97737.66;600714;236;65068;-74
2022/11/01 06:46:56;;;;;;;;;;;;;;;20.15;69.14;97735.79;600751;236;67224;-74
2022/11/01 06:49:24;;;;;;;;;;;;;;;20.15;69.46;97736.59;600632;236;66706;-74
2022/11/01 06:51:53;;;;;;;;;;;;;;;20.16;70.16;97730.22;604428;234;64871;-74
2022/11/01 06:54:20;;;;;;;;;;;;;;;20.17;69.30;97733.69;604680;234;67108;-73
2022/11/01 06:56:48;;;;;;;;;;;;;;;20.16;68.96;97730.22;604656;234;67250;-73
2022/11/01 06:59:16;;;;;;;;;;;;;;;20.17;67.86;97739.03;604719;234;64884;-73
2022/11/01 07:01:43;;;;;;;;;;;;;;;20.17;68.38;97739.03;604661;234;67100;-79
2022/11/01 07:04:11;;;;;;;;;;;;;;;20.17;65.79;97728.35;604681;234;67113;-73
2022/11/01 07:06:38;;;;;;;;;;;;;;;20.18;67.24;97733.42;604728;234;64845;-72
2022/11/01 07:09:06;;;;;;;;;;;;;;;20.18;67.78;97733.42;603399;234;67289;-72
2022/11/01 07:11:33;;;;;;;;;;;;;;;20.21;64.61;97731.33;601518;236;66835;-73
2022/11/01 07:14:01;;;;;;;;;;;;;;;20.21;64.93;97723.31;601597;236;64986;-75
2022/11/01 07:16:29;;;;;;;;;;;;;;;20.22;64.47;97725.75;601585;236;64591;-74
2022/11/01 07:18:56;;;;;;;;;;;;;;;20.24;67.18;97726.28;601528;236;66496;-77
2022/11/01 07:21:24;;;;;;;;;;;;;;;20.23;65.56;97726.55;601548;236;62749;-76
2022/11/01 07:23:52;;;;;;;;;;;;;;;20.24;65.33;97723.61;601547;236;65025;-73
2022/11/01 07:26:20;;;;;;;;;;;;;;;20.25;65.24;97719.11;601539;236;66947;-73
2022/11/01 07:28:48;;;;;;;;;;;;;;;20.26;64.32;97723.38;601535;236;65942;-73
2022/11/01 07:31:15;;;;;;;;;;;;;;;20.27;66.53;97717.81;601531;236;67071;-74
2022/11/01 07:33:43;;;;;;;;;;;;;;;20.27;64.39;97722.31;600860;236;67081;-73
2022/11/01 07:36:10;;;;;;;;;;;;;;;20.27;64.23;97714.30;601033;235;62883;-73
2022/11/01 07:38:38;;;;;;;;;;;;;;;20.28;65.21;97714.07;601030;236;65139;-72
2022/11/01 07:41:06;;;;;;;;;;;;;;;20.28;65.02;97714.07;600912;236;66697;-72
2022/11/01 07:43:34;;;;;;;;;;;;;;;20.29;64.37;97714.87;600898;236;63014;-71
2022/11/01 07:46:06;;;;;;;;;;;;;;;20.30;64.64;97716.50;600917;236;68110;-72
2022/11/01 07:48:31;;;;;;;;;;;;;;;20.33;64.55;97714.14;600787;235;67000;-76
2022/11/01 07:50:59;;;;;;;;;;;;;;;20.37;62.63;97706.42;599029;236;64899;-72
2022/11/01 07:53:26;;;;;;;;;;;;;;;20.38;62.69;97708.05;597595;237;67101;-76
2022/11/01 07:55:54;;;;;;;;;;;;;;;20.39;64.58;97709.66;597684;237;66870;-77
2022/11/01 07:58:21;;;;;;;;;;;;;;;20.39;65.02;97697.11;597564;237;65078;-80
2022/11/01 08:00:49;;;;;;;;;;;;;;;20.40;63.82;97701.38;597641;237;64864;-78
2022/11/01 08:03:18;;;;;;;;;;;;;;;20.42;64.40;97703.02;597642;237;64118;-72
2022/11/01 08:05:47;;;;;;;;;;;;;;;20.43;65.86;97699.28;597601;237;63074;-71
2022/11/01 08:08:15;;;;;;;;;;;;;;;20.43;65.89;97702.75;597660;237;66854;-73
2022/11/01 08:10:42;;;;;;;;;;;;;;;20.43;66.03;97697.41;597568;237;66902;-71
2022/11/01 08:13:12;;;;;;;;;;;;;;;20.44;66.27;97701.71;597610;237;64870;-72
2022/11/01 08:15:39;;;;;;;;;;;;;;;20.45;66.04;97697.17;597610;237;66799;-73
2022/11/01 08:18:07;;;;;;;;;;;;;;;20.45;65.28;97691.83;597687;237;66645;-76
2022/11/01 08:20:34;;;;;;;;;;;;;;;20.46;67.00;97690.77;597654;237;65211;-74
2022/11/01 08:23:02;;;;;;;;;;;;;;;20.47;66.38;97695.06;597651;237;66891;-70
2022/11/01 08:25:30;;;;;;;;;;;;;;;20.48;66.41;97685.98;597659;237;66765;-76
2022/11/01 08:28:02;;;;;;;;;;;;;;;20.49;66.91;97692.92;597587;237;62832;-76
2022/11/01 08:30:29;;;;;;;;;;;;;;;20.50;67.18;97689.22;597593;237;65444;-77
2022/11/01 08:33:00;;;;;;;;;;;;;;;20.50;66.01;97686.55;597667;237;66915;-78
2022/11/01 08:35:28;;;;;;;;;;;;;;;20.50;66.70;97687.35;597620;235;64894;-78
2022/11/01 08:37:57;;;;;;;;;;;;;;;20.51;66.27;97685.48;597570;237;67418;-76
2022/11/01 08:40:25;;;;;;;;;;;;;;;20.51;66.43;97680.94;597691;237;66876;-76
2022/11/01 08:42:53;;;;;;;;;;;;;;;20.52;65.58;97677.23;597564;237;65180;-68
2022/11/01 08:45:20;;;;;;;;;;;;;;;20.54;63.31;97672.48;597602;237;67073;-76
2022/11/01 08:47:48;;;;;;;;;;;;;;;20.55;62.48;97679.43;597638;237;66848;-75
2022/11/01 08:50:16;;;;;;;;;;;;;;;20.55;63.09;97674.09;598542;236;64958;-74
2022/11/01 08:52:44;;;;;;;;;;;;;;;20.54;63.88;97674.33;601427;236;67157;-74
2022/11/01 08:55:11;;;;;;;;;;;;;;;20.53;64.91;97664.69;601416;236;67005;-71
2022/11/01 08:57:39;;;;;;;;;;;;;;;20.52;64.93;97676.44;601374;236;62870;-74
2022/11/01 09:00:09;;;;;;;;;;;;;;;20.51;65.44;97675.60;601468;236;64878;-77
2022/11/01 09:02:36;;;;;;;;;;;;;;;20.50;65.38;97671.33;601451;236;67731;-72
2022/11/01 09:05:06;;;;;;;;;;;;;;;20.50;66.76;97670.53;601322;236;62822;-72
2022/11/01 09:07:35;;;;;;;;;;;;;;;20.49;65.91;97667.06;601432;236;67194;-74
2022/11/01 09:10:07;;;;;;;;;;;;;;;20.49;66.72;97671.56;601431;236;66852;-72
2022/11/01 09:12:34;;;;;;;;;;;;;;;20.48;66.15;97660.09;601408;235;62754;-73
2022/11/01 09:15:02;;;;;;;;;;;;;;;20.47;66.66;97663.83;601423;233;64924;-73
2022/11/01 09:17:30;;;;;;;;;;;;;;;20.47;66.42;97665.70;601379;236;64379;-73
2022/11/01 09:19:57;;;;;;;;;;;;;;;20.47;66.56;97661.16;601354;236;65079;-75
2022/11/01 09:22:25;;;;;;;;;;;;;;;20.47;66.37;97660.36;601432;236;67320;-70
2022/11/01 09:24:54;;;;;;;;;;;;;;;20.46;65.49;97659.55;601464;236;67138;-77
2022/11/01 09:27:22;;;;;;;;;;;;;;;20.47;65.75;97653.14;601381;236;62761;-78
2022/11/01 09:29:49;;;;;;;;;;;;;;;20.48;64.44;97653.95;601428;236;64880;-76
2022/11/01 09:32:20;;;;;;;;;;;;;;;20.49;63.80;97659.05;601467;236;46779;-78
2022/11/01 09:34:49;;;;;;;;;;;;;;;20.49;63.62;97651.04;601386;236;63019;-73
2022/11/01 09:37:16;;;;;;;;;;;;;;;20.51;64.13;97645.43;601434;233;67056;-73
2022/11/01 09:39:44;;;;;;;;;;;;;;;20.51;64.57;97642.77;601473;236;66871;-73
2022/11/01 09:42:13;;;;;;;;;;;;;;;20.51;64.62;97645.43;601445;236;64874;-75
2022/11/01 09:44:42;;;;;;;;;;;;;;;20.51;64.36;97638.22;600303;235;65385;-77
2022/11/01 09:47:14;;;;;;;;;;;;;;;20.51;64.49;97640.89;601376;236;66841;-75
2022/11/01 09:49:43;;;;;;;;;;;;;;;20.51;64.28;97638.22;601187;233;63664;-73
2022/11/01 09:52:11;;;;;;;;;;;;;;;20.52;64.13;97639.05;597685;237;68370;-74
2022/11/01 09:54:39;;;;;;;;;;;;;;;20.52;64.64;97631.04;597368;237;66805;-75
2022/11/01 09:57:23;;;;;;;;;;;;;;;20.53;65.10;97629.97;597541;237;64914;-75
2022/11/01 10:00:08;;;;;;;;;;;;;;;20.52;64.11;97623.83;597581;237;67046;-75
2022/11/01 10:02:40;;;;;;;;;;;;;;;20.53;64.52;97625.46;597674;237;48101;-76
2022/11/01 10:05:14;;;;;;;;;;;;;;;20.53;64.28;97628.13;597607;237;65176;-74
2022/11/01 10:07:51;;;;;;;;;;;;;;;20.53;65.61;97625.46;597600;237;67153;-74
2022/11/01 10:10:20;;;;;;;;;;;;;;;20.52;66.79;97618.48;597405;237;65104;-74
2022/11/01 10:12:55;;;;;;;;;;;;;;;20.52;66.20;97615.02;597387;237;62787;-74
2022/11/01 10:15:29;;;;;;;;;;;;;;;20.51;66.49;97619.53;597383;237;65852;-74
2022/11/01 10:17:58;;;;;;;;;;;;;;;20.51;66.13;97622.20;592072;237;66931;-73
2022/11/01 10:20:27;;;;;;;;;;;;;;;20.52;66.04;97615.02;597543;237;62718;-75
2022/11/01 10:22:56;;;;;;;;;;;;;;;20.51;65.70;97616.06;597599;235;65062;-73
2022/11/01 10:25:25;;;;;;;;;;;;;;;20.51;66.42;97611.52;597619;237;64776;-72
2022/11/01 10:27:54;;;;;;;;;;;;;;;20.51;65.88;97614.19;597641;237;62838;-73
2022/11/01 10:30:21;;;;;;;;;;;;;;;20.50;66.00;97604.58;596931;237;64913;-75
2022/11/01 10:32:51;;;;;;;;;;;;;;;20.52;66.28;97617.69;597556;237;66668;-74
2022/11/01 10:35:38;;;;;;;;;;;;;;;20.51;65.06;97613.39;597612;237;64871;-72
2022/11/01 10:38:07;;;;;;;;;;;;;;;20.52;66.14;97609.68;597590;237;64828;-72
2022/11/01 10:40:36;;;;;;;;;;;;;;;20.51;65.61;97606.18;597642;235;67242;-72
2022/11/01 10:43:05;;;;;;;;;;;;;;;20.50;62.98;97609.13;597594;237;64892;-74
2022/11/01 10:45:32;;;;;;;;;;;;;;;20.52;64.97;97599.80;597461;237;67043;-74
2022/11/01 10:48:00;;;;;;;;;;;;;;;20.53;65.33;97600.59;597642;237;67033;-74
2022/11/01 10:50:29;;;;;;;;;;;;;;;20.53;65.18;97597.93;598994;236;64934;-75
2022/11/01 10:53:04;;;;;;;;;;;;;;;20.52;64.54;97593.66;601403;236;67074;-72
2022/11/01 10:55:36;;;;;;;;;;;;;;;20.53;65.62;97593.42;601416;236;66847;-72
2022/11/01 10:58:22;;;;;;;;;;;;;;;20.52;64.85;97586.45;601216;235;64889;-76
2022/11/01 11:00:50;;;;;;;;;;;;;;;20.53;65.03;97584.58;601411;236;66785;-76
2022/11/01 11:03:19;;;;;;;;;;;;;;;20.52;64.60;97580.31;601388;234;66954;-81
2022/11/01 11:05:47;;;;;;;;;;;;;;;20.52;64.48;97583.78;601403;236;62826;-79
2022/11/01 11:08:16;;;;;;;;;;;;;;;20.52;64.69;97578.44;601497;236;65328;-73
2022/11/01 11:10:44;;;;;;;;;;;;;;;20.52;63.81;97574.97;601426;236;64784;-72
2022/11/01 11:13:13;;;;;;;;;;;;;;;20.53;63.75;97566.72;601342;236;64914;-72
2022/11/01 11:15:45;;;;;;;;;;;;;;;20.53;66.92;97565.89;601450;236;64884;-73
2022/11/01 11:18:14;;;;;;;;;;;;;;;20.52;65.89;97564.29;601374;236;66893;-74
2022/11/01 11:20:42;;;;;;;;;;;;;;;20.51;66.31;97568.80;601296;236;64836;-72
2022/11/01 11:23:11;;;;;;;;;;;;;;;20.50;64.38;97564.53;601479;236;67039;-72
2022/11/01 11:25:41;;;;;;;;;;;;;;;20.50;64.53;97567.20;601435;236;67056;-74
2022/11/01 11:28:10;;;;;;;;;;;;;;;20.50;64.19;97564.53;601413;236;62766;-72
2022/11/01 11:30:38;;;;;;;;;;;;;;;20.49;65.08;97560.27;601059;236;64548;-73
2022/11/01 11:33:05;;;;;;;;;;;;;;;20.50;63.95;97561.06;601375;236;66976;-73
2022/11/01 11:35:36;;;;;;;;;;;;;;;20.50;63.46;97561.86;601416;236;64865;-72
2022/11/01 11:38:03;;;;;;;;;;;;;;;20.50;64.41;97561.06;601373;236;71561;-73
2022/11/01 11:40:42;;;;;;;;;;;;;;;20.49;64.55;97557.59;601372;236;66882;-72
2022/11/01 11:43:29;;;;;;;;;;;;;;;20.50;63.96;97555.72;601362;236;64845;-72
2022/11/01 11:46:10;;;;;;;;;;;;;;;20.50;63.80;97555.72;601454;236;65096;-73
2022/11/01 11:48:45;;;;;;;;;;;;;;;20.49;62.08;97554.92;601394;233;64563;-73
2022/11/01 11:51:12;;;;;;;;;;;;;;;20.52;61.30;97549.07;598701;233;65103;-72
2022/11/01 11:53:40;;;;;;;;;;;;;;;20.53;61.41;97556.04;597643;237;67026;-72
2022/11/01 11:56:10;;;;;;;;;;;;;;;20.53;62.37;97558.70;597541;237;65139;-72
2022/11/01 11:58:47;;;;;;;;;;;;;;;20.54;63.77;97562.17;597620;237;63066;-72
2022/11/01 12:01:16;;;;;;;;;;;;;;;20.52;62.98;97548.27;597574;237;64862;-72
2022/11/01 12:03:47;;;;;;;;;;;;;;;20.52;63.28;97554.41;595397;237;47921;-72
2022/11/01 12:06:19;;;;;;;;;;;;;;;20.52;62.88;97554.41;594423;238;65021;-72
2022/11/01 12:08:52;;;;;;;;;;;;;;;20.53;63.07;97556.04;594522;238;64938;-72
2022/11/01 12:11:19;;;;;;;;;;;;;;;20.52;63.69;97550.94;594389;238;64592;-72
2022/11/01 12:14:01;;;;;;;;;;;;;;;20.52;63.57;97546.39;594540;238;62849;-73
2022/11/01 12:16:29;;;;;;;;;;;;;;;20.53;63.68;97552.53;594467;237;64329;-72
2022/11/01 12:18:57;;;;;;;;;;;;;;;20.52;63.47;97549.07;594369;238;65461;-72
2022/11/01 12:21:29;;;;;;;;;;;;;;;20.53;63.57;97550.70;594478;238;62513;-74
2022/11/01 12:23:58;;;;;;;;;;;;;;;20.54;63.41;97551.50;594398;238;64864;-70
2022/11/01 12:26:28;;;;;;;;;;;;;;;20.55;63.81;97545.12;594465;238;64432;-70
2022/11/01 12:29:02;;;;;;;;;;;;;;;20.55;63.27;97548.59;594459;238;65817;-71
2022/11/01 12:31:30;;;;;;;;;;;;;;;20.54;63.63;97538.98;594317;238;66749;-70
2022/11/01 12:34:00;;;;;;;;;;;;;;;20.55;63.86;97540.58;594458;238;64856;-71
2022/11/01 12:36:29;;;;;;;;;;;;;;;20.55;63.92;97548.59;594436;238;64939;-71
2022/11/01 12:39:01;;;;;;;;;;;;;;;20.56;63.60;97542.17;594445;238;67084;-72
2022/11/01 12:41:36;;;;;;;;;;;;;;;20.56;64.37;97538.70;594196;238;64730;-75
2022/11/01 12:44:05;;;;;;;;;;;;;;;20.55;64.45;97537.91;594477;238;62814;-73
2022/11/01 12:46:34;;;;;;;;;;;;;;;20.56;64.40;97542.17;594161;238;64975;-74
2022/11/01 12:49:06;;;;;;;;;;;;;;;20.57;64.63;97535.80;594436;238;64777;-69
2022/11/01 12:51:38;;;;;;;;;;;;;;;20.59;65.48;97533.65;598853;236;65018;-73
2022/11/01 12:54:16;;;;;;;;;;;;;;;20.58;66.42;97533.92;599816;236;64867;-71
2022/11/01 12:56:44;;;;;;;;;;;;;;;20.56;65.11;97534.16;599821;236;66937;-69
2022/11/01 12:59:13;;;;;;;;;;;;;;;20.55;64.08;97529.89;599858;236;64865;-71
2022/11/01 13:01:57;;;;;;;;;;;;;;;20.55;64.29;97531.77;599993;236;67046;-75